createdAt,value
2018-09-11T00:01:31.274Z,17.56
2018-09-11T00:04:00.103Z,17.54
2018-09-11T00:06:28.765Z,17.49
2018-09-11T00:08:57.441Z,17.49
2018-09-11T00:11:26.274Z,17.45
2018-09-11T00:13:54.949Z,17.42
2018-09-11T00:16:23.844Z,17.35
2018-09-11T00:18:52.511Z,17.31
2018-09-11T00:21:21.307Z,17.29
2018-09-11T00:23:49.965Z,17.29
2018-09-11T00:26:18.797Z,17.31
2018-09-11T00:28:48.009Z,17.30
2018-09-11T00:31:16.729Z,17.29
2018-09-11T00:33:45.447Z,17.26
2018-09-11T00:36:14.139Z,17.34
2018-09-11T00:38:43.745Z,17.31
2018-09-11T00:41:13.386Z,17.29
2018-09-11T00:43:42.928Z,17.30
2018-09-11T00:46:11.651Z,17.31
2018-09-11T00:48:40.346Z,17.28
2018-09-11T00:51:09.110Z,17.27
2018-09-11T00:53:38.125Z,17.30
2018-09-11T00:56:06.897Z,17.23
2018-09-11T00:58:35.655Z,17.20
2018-09-11T01:01:04.411Z,17.17
2018-09-11T01:03:33.093Z,17.13
2018-09-11T01:06:02.102Z,17.12
2018-09-11T01:08:30.970Z,17.09
2018-09-11T01:10:59.740Z,17.11
2018-09-11T01:13:28.453Z,17.08
2018-09-11T01:15:57.114Z,17.09
2018-09-11T01:18:25.793Z,17.07
2018-09-11T01:20:54.561Z,17.15
2018-09-11T01:23:23.249Z,17.17
2018-09-11T01:25:51.962Z,17.18
2018-09-11T01:28:20.686Z,17.16
2018-09-11T01:30:49.486Z,17.13
2018-09-11T01:33:18.188Z,17.12
2018-09-11T01:35:46.859Z,17.10
2018-09-11T01:38:15.619Z,17.11
2018-09-11T01:40:44.376Z,17.09
2018-09-11T01:43:13.306Z,17.07
2018-09-11T01:45:42.060Z,17.08
2018-09-11T01:48:10.763Z,17.06
2018-09-11T01:50:39.469Z,17.01
2018-09-11T01:53:08.198Z,17.03
2018-09-11T01:55:36.889Z,16.94
2018-09-11T01:58:06.106Z,16.93
2018-09-11T02:00:34.753Z,16.90
2018-09-11T02:03:03.435Z,16.91
2018-09-11T02:05:32.245Z,16.86
2018-09-11T02:08:01.357Z,16.85
2018-09-11T02:10:30.029Z,16.83
2018-09-11T02:12:58.673Z,16.84
2018-09-11T02:15:27.380Z,16.86
2018-09-11T02:17:56.090Z,16.78
2018-09-11T02:20:25.238Z,16.73
2018-09-11T02:22:54.009Z,16.67
2018-09-11T02:25:22.714Z,16.62
2018-09-11T02:27:52.206Z,16.56
2018-09-11T02:30:21.394Z,16.50
2018-09-11T02:32:50.247Z,16.47
2018-09-11T02:35:18.919Z,16.46
2018-09-11T02:37:47.646Z,16.42
2018-09-11T02:40:16.674Z,16.36
2018-09-11T02:42:45.338Z,16.26
2018-09-11T02:45:14.019Z,16.23
2018-09-11T02:47:42.643Z,16.25
2018-09-11T02:50:11.373Z,16.25
2018-09-11T02:52:40.097Z,16.22
2018-09-11T02:55:09.433Z,16.23
2018-09-11T02:57:38.190Z,16.18
2018-09-11T03:00:07.617Z,16.10
2018-09-11T03:02:36.413Z,16.05
2018-09-11T03:05:05.208Z,16.06
2018-09-11T03:07:33.949Z,16.01
2018-09-11T03:10:02.854Z,15.99
2018-09-11T03:12:31.659Z,15.97
2018-09-11T03:15:00.301Z,15.94
2018-09-11T03:17:29.023Z,15.97
2018-09-11T03:19:57.913Z,15.97
2018-09-11T03:22:26.803Z,15.98
2018-09-11T03:24:55.670Z,15.98
2018-09-11T03:27:24.390Z,15.97
2018-09-11T03:29:53.142Z,15.95
2018-09-11T03:32:21.810Z,15.89
2018-09-11T03:34:50.949Z,15.89
2018-09-11T03:37:19.951Z,15.88
2018-09-11T03:39:48.929Z,15.87
2018-09-11T03:42:17.732Z,15.79
2018-09-11T03:44:46.397Z,15.74
2018-09-11T03:47:15.141Z,15.71
2018-09-11T03:49:43.921Z,15.74
2018-09-11T03:52:12.602Z,15.88
2018-09-11T03:54:41.368Z,15.90
2018-09-11T03:57:10.003Z,15.88
2018-09-11T03:59:38.825Z,15.86
2018-09-11T04:02:07.532Z,15.84
2018-09-11T04:04:36.544Z,15.83
2018-09-11T04:07:05.430Z,15.88
2018-09-11T04:09:34.157Z,15.88
2018-09-11T04:12:03.285Z,15.90
2018-09-11T04:14:32.145Z,15.87
2018-09-11T04:17:00.913Z,15.79
2018-09-11T04:19:29.636Z,15.68
2018-09-11T04:21:58.373Z,15.61
2018-09-11T04:24:27.156Z,15.49
2018-09-11T04:26:55.864Z,15.41
2018-09-11T04:29:31.161Z,15.38
2018-09-11T04:31:59.832Z,15.37
2018-09-11T04:34:28.567Z,15.29
2018-09-11T04:36:57.234Z,15.27
2018-09-11T04:39:26.021Z,15.26
2018-09-11T04:41:54.913Z,15.25
2018-09-11T04:44:23.700Z,15.33
2018-09-11T04:46:52.384Z,15.38
2018-09-11T04:49:21.284Z,15.39
2018-09-11T04:51:50.307Z,15.43
2018-09-11T04:54:19.166Z,15.38
2018-09-11T04:56:47.979Z,15.34
2018-09-11T04:59:16.707Z,15.25
2018-09-11T05:01:45.390Z,15.20
2018-09-11T05:04:14.133Z,15.15
2018-09-11T05:06:42.958Z,15.15
2018-09-11T05:09:12.586Z,15.11
2018-09-11T05:11:41.245Z,15.11
2018-09-11T05:14:10.089Z,15.17
2018-09-11T05:16:39.057Z,15.13
2018-09-11T05:19:07.875Z,15.18
2018-09-11T05:21:36.628Z,15.27
2018-09-11T05:24:05.366Z,15.32
2018-09-11T05:26:34.144Z,15.38
2018-09-11T05:29:02.995Z,15.47
2018-09-11T05:31:32.223Z,15.50
2018-09-11T05:34:01.115Z,15.57
2018-09-11T05:36:29.791Z,15.58
2018-09-11T05:38:58.510Z,15.60
2018-09-11T05:41:27.176Z,15.62
2018-09-11T05:43:56.058Z,15.66
2018-09-11T05:46:24.906Z,15.75
2018-09-11T05:48:53.619Z,15.93
2018-09-11T05:51:22.458Z,15.98
2018-09-11T05:53:51.330Z,16.02
2018-09-11T05:56:20.830Z,16.05
2018-09-11T05:58:49.734Z,16.11
2018-09-11T06:01:18.614Z,16.18
2018-09-11T06:03:47.341Z,16.25
2018-09-11T06:06:16.273Z,16.31
2018-09-11T06:08:45.244Z,16.42
2018-09-11T06:11:13.934Z,16.45
2018-09-11T06:13:42.577Z,16.59
2018-09-11T06:16:11.712Z,16.67
2018-09-11T06:18:40.546Z,16.74
2018-09-11T06:21:09.290Z,16.79
2018-09-11T06:23:38.332Z,16.85
2018-09-11T06:26:08.310Z,16.93
2018-09-11T06:28:37.105Z,17.00
2018-09-11T06:31:06.318Z,17.11
2018-09-11T06:33:35.109Z,17.27
2018-09-11T06:36:04.014Z,17.33
2018-09-11T06:38:32.734Z,17.28
2018-09-11T06:41:01.399Z,17.35
2018-09-11T06:43:30.686Z,17.51
2018-09-11T06:45:59.754Z,17.37
2018-09-11T06:48:28.389Z,17.35
2018-09-11T06:50:57.078Z,17.48
2018-09-11T06:53:27.045Z,17.67
2018-09-11T06:55:55.716Z,17.65
2018-09-11T06:58:24.360Z,17.67
2018-09-11T07:00:53.363Z,17.84
2018-09-11T07:03:22.050Z,17.89
2018-09-11T07:05:50.778Z,17.95
2018-09-11T07:08:19.652Z,18.05
2018-09-11T07:10:48.386Z,18.00
2018-09-11T07:13:17.027Z,18.10
2018-09-11T07:15:45.692Z,18.10
2018-09-11T07:18:14.557Z,18.12
2018-09-11T07:20:43.270Z,18.10
2018-09-11T07:23:12.038Z,18.27
2018-09-11T07:25:40.785Z,18.35
2018-09-11T07:28:09.431Z,18.45
2018-09-11T07:30:38.292Z,18.53
2018-09-11T07:33:07.178Z,18.59
2018-09-11T07:35:35.966Z,18.71
2018-09-11T07:38:04.740Z,18.88
2018-09-11T07:40:33.536Z,19.03
2018-09-11T07:43:02.300Z,19.28
2018-09-11T07:45:31.266Z,19.33
2018-09-11T07:48:00.011Z,19.42
2018-09-11T07:50:28.763Z,19.48
2018-09-11T07:52:57.511Z,19.61
2018-09-11T07:55:26.249Z,19.57
2018-09-11T07:57:55.094Z,19.74
2018-09-11T08:00:24.133Z,19.75
2018-09-11T08:02:52.923Z,19.83
2018-09-11T08:05:21.691Z,19.92
2018-09-11T08:07:50.287Z,20.12
2018-09-11T08:10:19.118Z,20.25
2018-09-11T08:12:48.215Z,20.41
2018-09-11T08:15:17.172Z,20.40
2018-09-11T08:17:45.885Z,20.51
2018-09-11T08:20:14.786Z,20.52
2018-09-11T08:22:43.678Z,20.52
2018-09-11T08:25:12.466Z,20.65
2018-09-11T08:27:41.296Z,20.73
2018-09-11T08:30:10.023Z,20.86
2018-09-11T08:32:38.868Z,20.90
2018-09-11T08:35:07.949Z,20.92
2018-09-11T08:37:36.619Z,20.90
2018-09-11T08:40:06.010Z,21.08
2018-09-11T08:42:34.794Z,21.24
2018-09-11T08:45:03.653Z,21.24
2018-09-11T08:47:32.478Z,21.23
2018-09-11T08:50:01.353Z,21.23
2018-09-11T08:52:30.155Z,21.31
2018-09-11T08:54:58.866Z,21.35
2018-09-11T08:57:27.710Z,21.49
2018-09-11T08:59:56.414Z,21.56
2018-09-11T09:02:25.121Z,21.65
2018-09-11T09:04:54.018Z,21.72
2018-09-11T09:07:22.774Z,21.77
2018-09-11T09:09:53.384Z,21.85
2018-09-11T09:12:22.316Z,21.77
2018-09-11T09:14:51.115Z,21.80
2018-09-11T09:17:19.881Z,21.89
2018-09-11T09:19:48.651Z,21.93
2018-09-11T09:22:17.793Z,22.05
2018-09-11T09:24:46.591Z,22.27
2018-09-11T09:27:15.351Z,22.26
2018-09-11T09:29:44.108Z,22.20
2018-09-11T09:32:12.938Z,22.27
2018-09-11T09:34:41.810Z,22.41
2018-09-11T09:37:10.999Z,22.56
2018-09-11T09:39:40.029Z,22.62
2018-09-11T09:42:08.770Z,22.71
2018-09-11T09:44:37.726Z,22.70
2018-09-11T09:47:06.497Z,22.89
2018-09-11T09:49:35.295Z,22.80
2018-09-11T09:52:04.068Z,22.89
2018-09-11T09:54:32.693Z,22.88
2018-09-11T09:57:01.386Z,22.71
2018-09-11T09:59:30.023Z,22.87
2018-09-11T10:02:03.225Z,22.85
2018-09-11T10:04:32.822Z,23.05
2018-09-11T10:07:01.832Z,23.05
2018-09-11T10:09:30.957Z,23.12
2018-09-11T10:11:59.669Z,23.12
2018-09-11T10:14:28.559Z,23.16
2018-09-11T10:16:57.198Z,23.26
2018-09-11T10:19:26.261Z,23.33
2018-09-11T10:21:55.051Z,23.38
2018-09-11T10:24:23.959Z,23.66
2018-09-11T10:26:52.864Z,23.98
2018-09-11T10:29:22.053Z,23.98
2018-09-11T10:31:50.709Z,23.85
2018-09-11T10:34:19.491Z,23.85
2018-09-11T10:36:48.205Z,23.86
2018-09-11T10:39:17.059Z,23.83
2018-09-11T10:41:45.800Z,23.96
2018-09-11T10:44:14.540Z,24.03
2018-09-11T10:46:43.491Z,24.02
2018-09-11T10:49:12.202Z,24.05
2018-09-11T10:51:40.972Z,23.89
2018-09-11T10:54:09.714Z,24.09
2018-09-11T10:56:38.458Z,24.23
2018-09-11T10:59:07.216Z,24.38
2018-09-11T11:01:35.950Z,24.38
2018-09-11T11:04:04.999Z,24.16
2018-09-11T11:06:33.670Z,24.29
2018-09-11T11:09:02.373Z,24.27
2018-09-11T11:11:31.598Z,24.07
2018-09-11T11:14:00.350Z,24.08
2018-09-11T11:16:28.999Z,24.07
2018-09-11T11:18:57.834Z,24.01
2018-09-11T11:21:26.593Z,24.27
2018-09-11T11:23:55.466Z,24.36
2018-09-11T11:26:24.130Z,24.49
2018-09-11T11:28:52.857Z,24.65
2018-09-11T11:31:21.713Z,24.90
2018-09-11T11:33:50.509Z,24.93
2018-09-11T11:36:19.863Z,24.87
2018-09-11T11:38:48.356Z,24.83
2018-09-11T11:41:17.410Z,24.78
2018-09-11T11:43:46.543Z,24.95
2018-09-11T11:46:15.203Z,25.29
2018-09-11T11:48:52.988Z,25.48
2018-09-11T11:51:21.947Z,25.80
2018-09-11T11:53:50.637Z,25.90
2018-09-11T11:56:19.498Z,25.96
2018-09-11T11:58:48.254Z,26.68
2018-09-11T12:01:16.996Z,26.95
2018-09-11T12:03:45.854Z,27.44
2018-09-11T12:06:15.168Z,27.49
2018-09-11T12:08:44.114Z,27.51
2018-09-11T12:11:13.101Z,28.37
2018-09-11T12:13:41.904Z,29.35
2018-09-11T12:16:10.634Z,29.48
2018-09-11T12:18:39.272Z,29.67
2018-09-11T12:21:08.406Z,28.55
2018-09-11T12:23:37.250Z,29.47
2018-09-11T12:26:06.150Z,30.16
2018-09-11T12:28:34.789Z,30.17
2018-09-11T12:31:03.604Z,29.27
2018-09-11T12:33:32.458Z,29.77
2018-09-11T12:36:01.109Z,28.92
2018-09-11T12:38:29.818Z,30.49
2018-09-11T12:40:58.743Z,30.84
2018-09-11T12:43:27.478Z,30.34
2018-09-11T12:45:56.639Z,30.12
2018-09-11T12:48:25.367Z,31.48
2018-09-11T12:50:54.086Z,30.09
2018-09-11T12:53:22.847Z,30.69
2018-09-11T12:55:51.579Z,31.44
2018-09-11T12:58:20.454Z,31.73
2018-09-11T13:00:49.241Z,31.60
2018-09-11T13:03:17.998Z,31.49
2018-09-11T13:05:46.749Z,31.69
2018-09-11T13:08:15.418Z,32.06
2018-09-11T13:10:44.335Z,32.90
2018-09-11T13:13:13.049Z,31.65
2018-09-11T13:15:41.709Z,31.65
2018-09-11T13:18:10.407Z,31.69
2018-09-11T13:20:39.157Z,32.12
2018-09-11T13:23:08.181Z,32.74
2018-09-11T13:25:37.105Z,33.52
2018-09-11T13:28:06.150Z,33.26
2018-09-11T13:30:34.922Z,32.89
2018-09-11T13:33:03.905Z,32.95
2018-09-11T13:35:32.797Z,35.01
2018-09-11T13:38:01.643Z,34.33
2018-09-11T13:40:30.421Z,33.16
2018-09-11T13:42:59.370Z,34.09
2018-09-11T13:45:28.290Z,33.06
2018-09-11T13:47:57.399Z,33.41
2018-09-11T13:50:26.034Z,33.16
2018-09-11T13:52:54.984Z,33.10
2018-09-11T13:55:23.698Z,33.98
2018-09-11T13:57:52.379Z,33.68
2018-09-11T14:00:21.513Z,33.78
2018-09-11T14:02:50.264Z,33.35
2018-09-11T14:05:18.986Z,33.41
2018-09-11T14:07:47.833Z,33.81
2018-09-11T14:10:16.529Z,33.22
2018-09-11T14:12:45.207Z,31.37
2018-09-11T14:15:13.953Z,30.63
2018-09-11T14:17:42.686Z,29.85
2018-09-11T14:20:12.039Z,29.36
2018-09-11T14:22:41.209Z,29.04
2018-09-11T14:25:09.982Z,28.75
2018-09-11T14:27:38.638Z,28.38
2018-09-11T14:30:07.378Z,28.14
2018-09-11T14:32:36.354Z,28.01
2018-09-11T14:35:05.240Z,27.80
2018-09-11T14:37:34.126Z,28.01
2018-09-11T14:40:03.348Z,28.10
2018-09-11T14:42:31.995Z,28.03
2018-09-11T14:45:00.701Z,27.81
2018-09-11T14:47:33.514Z,27.66
2018-09-11T14:50:02.326Z,27.54
2018-09-11T14:52:31.084Z,27.41
2018-09-11T14:54:59.734Z,27.38
2018-09-11T14:57:28.812Z,27.32
2018-09-11T14:59:57.733Z,27.32
2018-09-11T15:02:26.445Z,27.35
2018-09-11T15:04:55.734Z,27.39
2018-09-11T15:07:24.842Z,27.22
2018-09-11T15:09:53.847Z,27.14
2018-09-11T15:12:22.565Z,27.29
2018-09-11T15:14:51.426Z,27.20
2018-09-11T15:17:20.105Z,26.96
2018-09-11T15:19:48.801Z,26.81
2018-09-11T15:22:17.489Z,26.74
2018-09-11T15:24:46.290Z,26.54
2018-09-11T15:27:15.039Z,26.48
2018-09-11T15:29:43.981Z,26.33
2018-09-11T15:32:12.707Z,26.44
2018-09-11T15:34:41.593Z,26.40
2018-09-11T15:37:10.264Z,26.18
2018-09-11T15:39:38.981Z,26.22
2018-09-11T15:42:07.660Z,26.38
2018-09-11T15:44:36.342Z,26.25
2018-09-11T15:47:05.033Z,26.48
2018-09-11T15:49:33.758Z,26.44
2018-09-11T15:52:02.430Z,26.36
2018-09-11T15:54:31.374Z,26.15
2018-09-11T15:57:00.139Z,26.34
2018-09-11T15:59:28.861Z,26.37
2018-09-11T16:01:57.599Z,26.44
2018-09-11T16:04:26.995Z,26.69
2018-09-11T16:06:55.786Z,26.59
2018-09-11T16:09:24.563Z,26.55
2018-09-11T16:11:53.259Z,26.39
2018-09-11T16:14:22.027Z,26.48
2018-09-11T16:16:51.258Z,26.45
2018-09-11T16:19:20.101Z,26.24
2018-09-11T16:21:49.307Z,26.30
2018-09-11T16:24:18.062Z,26.28
2018-09-11T16:26:46.766Z,26.26
2018-09-11T16:29:15.597Z,26.29
2018-09-11T16:31:44.280Z,26.40
2018-09-11T16:34:13.150Z,26.39
2018-09-11T16:36:41.972Z,26.30
2018-09-11T16:39:12.500Z,26.04
2018-09-11T16:41:41.562Z,25.91
2018-09-11T16:44:10.317Z,25.70
2018-09-11T16:46:39.482Z,25.72
2018-09-11T16:49:08.891Z,25.64
2018-09-11T16:51:38.013Z,25.61
2018-09-11T16:54:07.076Z,25.56
2018-09-11T16:56:35.842Z,25.54
2018-09-11T16:59:04.958Z,25.51
2018-09-11T17:01:33.659Z,25.42
2018-09-11T17:04:02.307Z,25.48
2018-09-11T17:06:31.012Z,25.47
2018-09-11T17:08:59.659Z,25.31
2018-09-11T17:11:28.491Z,25.25
2018-09-11T17:13:57.231Z,25.20
2018-09-11T17:16:25.925Z,25.20
2018-09-11T17:18:54.681Z,25.10
2018-09-11T17:21:23.402Z,25.05
2018-09-11T17:23:52.180Z,24.97
2018-09-11T17:26:20.900Z,24.83
2018-09-11T17:28:49.938Z,24.73
2018-09-11T17:31:18.881Z,24.70
2018-09-11T17:33:47.991Z,24.61
2018-09-11T17:36:16.766Z,24.57
2018-09-11T17:38:45.581Z,24.51
2018-09-11T17:41:14.375Z,24.46
2018-09-11T17:43:43.027Z,24.37
2018-09-11T17:46:11.720Z,24.34
2018-09-11T17:48:40.466Z,24.38
2018-09-11T17:51:09.133Z,24.30
2018-09-11T17:53:37.959Z,24.19
2018-09-11T17:56:07.058Z,24.13
2018-09-11T17:58:35.768Z,24.05
2018-09-11T18:01:04.515Z,23.96
2018-09-11T18:03:33.237Z,23.90
2018-09-11T18:06:02.156Z,23.88
2018-09-11T18:08:30.917Z,23.82
2018-09-11T18:10:59.640Z,23.77
2018-09-11T18:13:28.327Z,23.70
2018-09-11T18:15:57.091Z,23.68
2018-09-11T18:18:26.027Z,23.63
2018-09-11T18:20:55.367Z,23.59
2018-09-11T18:23:24.274Z,23.56
2018-09-11T18:25:53.451Z,23.47
2018-09-11T18:28:22.154Z,23.39
2018-09-11T18:30:51.286Z,23.30
2018-09-11T18:33:20.076Z,23.21
2018-09-11T18:35:48.818Z,23.03
2018-09-11T18:38:17.554Z,22.95
2018-09-11T18:40:46.438Z,22.86
2018-09-11T18:43:15.208Z,22.74
2018-09-11T18:45:43.902Z,22.67
2018-09-11T18:48:12.902Z,22.52
2018-09-11T18:50:41.596Z,22.46
2018-09-11T18:53:10.253Z,22.37
2018-09-11T18:55:38.950Z,22.36
2018-09-11T18:58:07.730Z,22.29
2018-09-11T19:00:36.539Z,22.21
2018-09-11T19:03:05.273Z,22.18
2018-09-11T19:05:33.934Z,22.12
2018-09-11T19:08:02.809Z,22.04
2018-09-11T19:10:31.890Z,22.00
2018-09-11T19:13:00.654Z,21.89
2018-09-11T19:15:29.782Z,21.78
2018-09-11T19:17:58.578Z,21.65
2018-09-11T19:20:27.531Z,21.58
2018-09-11T19:22:56.241Z,21.50
2018-09-11T19:25:24.963Z,21.37
2018-09-11T19:27:55.401Z,21.35
2018-09-11T19:30:24.067Z,21.28
2018-09-11T19:32:52.801Z,21.21
2018-09-11T19:35:21.844Z,21.15
2018-09-11T19:37:50.631Z,21.19
2018-09-11T19:40:19.391Z,21.12
2018-09-11T19:42:48.138Z,21.09
2018-09-11T19:45:16.867Z,21.02
2018-09-11T19:47:45.578Z,20.96
2018-09-11T19:50:14.447Z,20.92
2018-09-11T19:52:43.059Z,20.82
2018-09-11T19:55:11.865Z,20.76
2018-09-11T19:57:40.653Z,20.71
2018-09-11T20:00:09.389Z,20.62
2018-09-11T20:02:38.145Z,20.62
2018-09-11T20:05:07.425Z,20.55
2018-09-11T20:07:36.186Z,20.50
2018-09-11T20:10:05.072Z,20.43
2018-09-11T20:12:33.991Z,20.32
2018-09-11T20:15:02.703Z,20.24
2018-09-11T20:17:31.418Z,20.12
2018-09-11T20:20:00.272Z,20.02
2018-09-11T20:22:29.012Z,19.98
2018-09-11T20:24:57.900Z,19.93
2018-09-11T20:27:26.709Z,19.89
2018-09-11T20:29:55.524Z,19.86
2018-09-11T20:32:24.505Z,19.81
2018-09-11T20:34:53.266Z,19.76
2018-09-11T20:37:22.280Z,19.63
2018-09-11T20:39:50.972Z,19.63
2018-09-11T20:42:19.674Z,19.57
2018-09-11T20:44:48.562Z,19.53
2018-09-11T20:47:17.405Z,19.43
2018-09-11T20:49:46.151Z,19.47
2018-09-11T20:52:15.121Z,19.40
2018-09-11T20:54:43.978Z,19.40
2018-09-11T20:57:12.675Z,19.39
2018-09-11T20:59:42.269Z,19.37
2018-09-11T21:02:11.167Z,19.33
2018-09-11T21:04:40.201Z,19.31
2018-09-11T21:07:08.910Z,19.27
2018-09-11T21:09:37.721Z,19.23
2018-09-11T21:12:06.391Z,19.20
2018-09-11T21:14:35.114Z,19.20
2018-09-11T21:17:04.017Z,19.10
2018-09-11T21:19:32.685Z,19.06
2018-09-11T21:22:02.013Z,18.99
2018-09-11T21:24:30.773Z,18.91
2018-09-11T21:26:59.450Z,18.85
2018-09-11T21:29:28.149Z,18.78
2018-09-11T21:31:56.823Z,18.74
2018-09-11T21:34:25.639Z,18.72
2018-09-11T21:36:54.452Z,18.67
2018-09-11T21:39:23.198Z,18.59
2018-09-11T21:41:51.958Z,18.56
2018-09-11T21:44:20.664Z,18.52
2018-09-11T21:46:49.385Z,18.47
2018-09-11T21:49:18.033Z,18.43
2018-09-11T21:51:51.943Z,18.32
2018-09-11T21:54:20.753Z,18.30
2018-09-11T21:56:49.426Z,18.25
2018-09-11T21:59:18.096Z,18.21
2018-09-11T22:01:54.287Z,18.19
2018-09-11T22:04:23.583Z,18.17
2018-09-11T22:06:52.276Z,18.07
2018-09-11T22:09:20.928Z,18.03
2018-09-11T22:11:49.697Z,18.02
2018-09-11T22:14:18.565Z,17.97
2018-09-11T22:16:47.310Z,17.93
2018-09-11T22:19:16.164Z,17.86
2018-09-11T22:21:44.801Z,17.81
2018-09-11T22:24:13.473Z,17.81
2018-09-11T22:26:42.354Z,17.81
2018-09-11T22:29:11.099Z,17.77
2018-09-11T22:31:39.845Z,17.70
2018-09-11T22:34:08.541Z,17.70
2018-09-11T22:36:37.349Z,17.61
2018-09-11T22:39:08.251Z,17.60
2018-09-11T22:41:36.981Z,17.60
2018-09-11T22:44:05.654Z,17.59
2018-09-11T22:46:34.565Z,17.57
2018-09-11T22:49:03.325Z,17.53
2018-09-11T22:51:32.135Z,17.51
2018-09-11T22:54:00.925Z,17.45
2018-09-11T22:56:29.573Z,17.43
2018-09-11T22:58:58.293Z,17.43
2018-09-11T23:01:26.930Z,17.34
2018-09-11T23:03:55.674Z,17.28
2018-09-11T23:06:24.423Z,17.24
2018-09-11T23:08:53.305Z,17.25
2018-09-11T23:11:22.146Z,17.20
2018-09-11T23:13:50.801Z,17.20
2018-09-11T23:16:19.455Z,17.16
2018-09-11T23:18:48.265Z,17.15
2018-09-11T23:21:16.889Z,17.10
2018-09-11T23:23:46.082Z,17.08
2018-09-11T23:26:14.777Z,17.04
2018-09-11T23:28:43.634Z,17.02
2018-09-11T23:31:12.334Z,17.00
2018-09-11T23:33:40.989Z,16.89
2018-09-11T23:36:09.825Z,16.91
2018-09-11T23:38:38.531Z,16.87
2018-09-11T23:41:08.875Z,16.86
2018-09-11T23:43:38.477Z,16.82
2018-09-11T23:46:08.018Z,16.73
2018-09-11T23:48:36.801Z,16.70
2018-09-11T23:51:06.257Z,16.69
2018-09-11T23:53:35.699Z,16.70
2018-09-11T23:56:05.538Z,16.68
2018-09-11T23:58:34.941Z,16.64
